sensor_id;sensor_type;location;lat;lon;timestamp;pressure;altitude;pressure_sealevel;temperature;humidity
7524;BME280;3803;51.666;7.630;2023-02-10T00:00:09;102892.66;;;6.61;50.98
7524;BME280;3803;51.666;7.630;2023-02-10T00:00:30;102894.72;;;6.65;50.78
7524;BME280;3803;51.666;7.630;2023-02-10T00:00:51;102885.00;;;6.63;51.07
7524;BME280;3803;51.666;7.630;2023-02-10T00:01:20;102895.63;;;6.66;50.90
7524;BME280;3803;51.666;7.630;2023-02-10T00:01:40;102890.44;;;6.66;50.90
7524;BME280;3803;51.666;7.630;2023-02-10T00:02:01;102876.97;;;6.60;50.95
7524;BME280;3803;51.666;7.630;2023-02-10T00:02:22;102886.81;;;6.64;50.93
7524;BME280;3803;51.666;7.630;2023-02-10T00:02:43;102889.41;;;6.64;50.93
7524;BME280;3803;51.666;7.630;2023-02-10T00:03:03;102883.22;;;6.62;51.05
7524;BME280;3803;51.666;7.630;2023-02-10T00:03:24;102887.84;;;6.66;50.77
7524;BME280;3803;51.666;7.630;2023-02-10T00:03:45;102896.63;;;6.68;51.12
7524;BME280;3803;51.666;7.630;2023-02-10T00:04:06;102892.22;;;6.67;50.77
7524;BME280;3803;51.666;7.630;2023-02-10T00:04:27;102896.63;;;6.68;50.86
7524;BME280;3803;51.666;7.630;2023-02-10T00:04:47;102891.09;;;6.63;50.88
7524;BME280;3803;51.666;7.630;2023-02-10T00:05:08;102897.44;;;6.67;50.84
7524;BME280;3803;51.666;7.630;2023-02-10T00:05:28;102885.00;;;6.63;50.96
7524;BME280;3803;51.666;7.630;2023-02-10T00:05:49;102891.09;;;6.63;51.42
7524;BME280;3803;51.666;7.630;2023-02-10T00:06:12;102902.34;;;6.74;51.08
7524;BME280;3803;51.666;7.630;2023-02-10T00:06:33;102876.44;;;6.64;51.08
7524;BME280;3803;51.666;7.630;2023-02-10T00:06:53;102900.16;;;6.68;51.33
7524;BME280;3803;51.666;7.630;2023-02-10T00:07:14;102882.78;;;6.67;51.15
7524;BME280;3803;51.666;7.630;2023-02-10T00:07:35;102883.66;;;6.68;51.13
7524;BME280;3803;51.666;7.630;2023-02-10T00:07:55;102886.25;;;6.68;50.67
7524;BME280;3803;51.666;7.630;2023-02-10T00:08:16;102881.84;;;6.67;51.24
7524;BME280;3803;51.666;7.630;2023-02-10T00:08:38;102897.06;;;6.73;51.14
7524;BME280;3803;51.666;7.630;2023-02-10T00:09:00;102885.50;;;6.69;51.25
7524;BME280;3803;51.666;7.630;2023-02-10T00:09:21;102884.59;;;6.68;50.96
7524;BME280;3803;51.666;7.630;2023-02-10T00:09:42;102888.97;;;6.69;51.17
7524;BME280;3803;51.666;7.630;2023-02-10T00:10:03;102889.91;;;6.70;51.39
7524;BME280;3803;51.666;7.630;2023-02-10T00:10:24;102883.28;;;6.74;50.93
7524;BME280;3803;51.666;7.630;2023-02-10T00:10:45;102891.97;;;6.74;51.21
7524;BME280;3803;51.666;7.630;2023-02-10T00:11:08;102900.09;;;6.79;50.91
7524;BME280;3803;51.666;7.630;2023-02-10T00:11:30;102883.00;;;6.70;51.12
7524;BME280;3803;51.666;7.630;2023-02-10T00:12:09;102885.50;;;6.69;51.43
7524;BME280;3803;51.666;7.630;2023-02-10T00:12:31;102881.06;;;6.68;51.36
7524;BME280;3803;51.666;7.630;2023-02-10T00:12:52;102899.88;;;6.76;51.14
7524;BME280;3803;51.666;7.630;2023-02-10T00:13:12;102892.75;;;6.73;50.98
7524;BME280;3803;51.666;7.630;2023-02-10T00:13:33;102894.97;;;6.68;51.46
7524;BME280;3803;51.666;7.630;2023-02-10T00:13:54;102879.25;;;6.67;51.14
7524;BME280;3803;51.666;7.630;2023-02-10T00:14:16;102896.28;;;6.74;51.43
7524;BME280;3803;51.666;7.630;2023-02-10T00:14:37;102895.63;;;6.66;51.72
7524;BME280;3803;51.666;7.630;2023-02-10T00:14:58;102896.53;;;6.66;51.32
7524;BME280;3803;51.666;7.630;2023-02-10T00:15:18;102892.22;;;6.67;51.85
7524;BME280;3803;51.666;7.630;2023-02-10T00:15:39;102884.72;;;6.70;51.05
7524;BME280;3803;51.666;7.630;2023-02-10T00:16:01;102900.53;;;6.73;51.60
7524;BME280;3803;51.666;7.630;2023-02-10T00:16:22;102886.38;;;6.69;51.46
7524;BME280;3803;51.666;7.630;2023-02-10T00:16:42;102890.69;;;6.69;51.34
7524;BME280;3803;51.666;7.630;2023-02-10T00:17:03;102898.88;;;6.74;51.47
7524;BME280;3803;51.666;7.630;2023-02-10T00:17:24;102895.22;;;6.71;51.40
7524;BME280;3803;51.666;7.630;2023-02-10T00:17:45;102884.59;;;6.68;51.76
7524;BME280;3803;51.666;7.630;2023-02-10T00:18:06;102899.53;;;6.71;51.00
7524;BME280;3803;51.666;7.630;2023-02-10T00:18:27;102900.81;;;6.66;51.45
7524;BME280;3803;51.666;7.630;2023-02-10T00:18:47;102888.63;;;6.65;51.79
7524;BME280;3803;51.666;7.630;2023-02-10T00:19:08;102889.41;;;6.64;51.46
7524;BME280;3803;51.666;7.630;2023-02-10T00:19:30;102899.75;;;6.74;51.67
7524;BME280;3803;51.666;7.630;2023-02-10T00:19:51;102889.78;;;6.68;51.70
7524;BME280;3803;51.666;7.630;2023-02-10T00:20:11;102884.34;;;6.65;51.65
7524;BME280;3803;51.666;7.630;2023-02-10T00:20:32;102907.53;;;6.74;51.75
7524;BME280;3803;51.666;7.630;2023-02-10T00:20:53;102906.22;;;6.79;51.52
7524;BME280;3803;51.666;7.630;2023-02-10T00:21:15;102903.28;;;6.75;51.63
7524;BME280;3803;51.666;7.630;2023-02-10T00:21:36;102887.31;;;6.70;51.59
7524;BME280;3803;51.666;7.630;2023-02-10T00:21:57;102899.75;;;6.74;51.78
7524;BME280;3803;51.666;7.630;2023-02-10T00:22:18;102901.81;;;6.78;51.59
7524;BME280;3803;51.666;7.630;2023-02-10T00:22:38;102906.22;;;6.79;51.31
7524;BME280;3803;51.666;7.630;2023-02-10T00:22:59;102894.47;;;6.73;51.49
7524;BME280;3803;51.666;7.630;2023-02-10T00:23:20;102894.56;;;6.74;51.60
7524;BME280;3803;51.666;7.630;2023-02-10T00:23:41;102903.38;;;6.76;51.53
7524;BME280;3803;51.666;7.630;2023-02-10T00:24:02;102901.81;;;6.78;51.73
7524;BME280;3803;51.666;7.630;2023-02-10T00:24:23;102894.47;;;6.73;51.41
7524;BME280;3803;51.666;7.630;2023-02-10T00:24:43;102900.78;;;6.76;51.74
7524;BME280;3803;51.666;7.630;2023-02-10T00:25:04;102897.28;;;6.76;51.65
7524;BME280;3803;51.666;7.630;2023-02-10T00:25:25;102898.97;;;6.75;51.69
7524;BME280;3803;51.666;7.630;2023-02-10T00:25:45;102896.13;;;6.72;51.92
7524;BME280;3803;51.666;7.630;2023-02-10T00:26:09;102896.75;;;6.69;51.53
7524;BME280;3803;51.666;7.630;2023-02-10T00:26:30;102891.97;;;6.74;51.62
7524;BME280;3803;51.666;7.630;2023-02-10T00:26:51;102898.56;;;6.70;51.61
7524;BME280;3803;51.666;7.630;2023-02-10T00:27:12;102905.72;;;6.73;51.69
7524;BME280;3803;51.666;7.630;2023-02-10T00:27:33;102883.66;;;6.68;51.79
7524;BME280;3803;51.666;7.630;2023-02-10T00:27:53;102891.09;;;6.74;51.59
7524;BME280;3803;51.666;7.630;2023-02-10T00:28:14;102888.09;;;6.69;51.33
7524;BME280;3803;51.666;7.630;2023-02-10T00:28:35;102908.56;;;6.76;51.48
7524;BME280;3803;51.666;7.630;2023-02-10T00:28:56;102891.88;;;6.73;51.64
7524;BME280;3803;51.666;7.630;2023-02-10T00:29:16;102896.94;;;6.71;51.56
7524;BME280;3803;51.666;7.630;2023-02-10T00:29:37;102902.59;;;6.77;51.68
7524;BME280;3803;51.666;7.630;2023-02-10T00:29:58;102891.88;;;6.73;51.30
7524;BME280;3803;51.666;7.630;2023-02-10T00:30:19;102887.56;;;6.73;51.83
7524;BME280;3803;51.666;7.630;2023-02-10T00:30:40;102884.59;;;6.68;51.94
7524;BME280;3803;51.666;7.630;2023-02-10T00:31:08;102890.03;;;6.71;51.90
7524;BME280;3803;51.666;7.630;2023-02-10T00:31:29;102901.81;;;6.78;51.59
7524;BME280;3803;51.666;7.630;2023-02-10T00:31:50;102890.69;;;6.69;51.78
7524;BME280;3803;51.666;7.630;2023-02-10T00:32:10;102887.31;;;6.70;51.88
7524;BME280;3803;51.666;7.630;2023-02-10T00:32:33;102898.88;;;6.74;51.81
7524;BME280;3803;51.666;7.630;2023-02-10T00:32:57;102883.66;;;6.68;51.74
7524;BME280;3803;51.666;7.630;2023-02-10T00:33:18;102883.44;;;6.65;51.65
7524;BME280;3803;51.666;7.630;2023-02-10T00:33:39;102892.22;;;6.67;51.66
7524;BME280;3803;51.666;7.630;2023-02-10T00:34:00;102888.84;;;6.68;51.74
7524;BME280;3803;51.666;7.630;2023-02-10T00:34:21;102882.94;;;6.58;51.90
7524;BME280;3803;51.666;7.630;2023-02-10T00:34:42;102887.84;;;6.66;51.80
7524;BME280;3803;51.666;7.630;2023-02-10T00:35:02;102885.09;;;6.64;52.00
7524;BME280;3803;51.666;7.630;2023-02-10T00:35:23;102879.16;;;6.65;51.58
7524;BME280;3803;51.666;7.630;2023-02-10T00:35:44;102893.81;;;6.65;51.57
7524;BME280;3803;51.666;7.630;2023-02-10T00:36:06;102889.53;;;6.65;51.83
7524;BME280;3803;51.666;7.630;2023-02-10T00:36:28;102891.09;;;6.63;52.27
7524;BME280;3803;51.666;7.630;2023-02-10T00:36:49;102886.03;;;6.65;51.88
7524;BME280;3803;51.666;7.630;2023-02-10T00:37:11;102879.69;;;6.61;52.29
7524;BME280;3803;51.666;7.630;2023-02-10T00:37:32;102870.09;;;6.60;51.90
7524;BME280;3803;51.666;7.630;2023-02-10T00:37:53;102890.44;;;6.66;52.03
7524;BME280;3803;51.666;7.630;2023-02-10T00:38:14;102882.78;;;6.67;51.83
7524;BME280;3803;51.666;7.630;2023-02-10T00:38:34;102892.91;;;6.64;52.23
7524;BME280;3803;51.666;7.630;2023-02-10T00:38:55;102888.03;;;6.57;52.08
7524;BME280;3803;51.666;7.630;2023-02-10T00:39:17;102897.44;;;6.67;52.12
7524;BME280;3803;51.666;7.630;2023-02-10T00:39:38;102889.94;;;6.60;52.22
7524;BME280;3803;51.666;7.630;2023-02-10T00:39:59;102884.75;;;6.60;52.29
7524;BME280;3803;51.666;7.630;2023-02-10T00:40:20;102890.84;;;6.60;52.61
7524;BME280;3803;51.666;7.630;2023-02-10T00:40:41;102883.59;;;6.56;52.22
7524;BME280;3803;51.666;7.630;2023-02-10T00:41:06;102887.91;;;6.55;52.09
7524;BME280;3803;51.666;7.630;2023-02-10T00:41:27;102905.34;;;6.68;52.14
7524;BME280;3803;51.666;7.630;2023-02-10T00:41:47;102885.44;;;6.57;52.29
7524;BME280;3803;51.666;7.630;2023-02-10T00:42:08;102895.13;;;6.60;52.18
7524;BME280;3803;51.666;7.630;2023-02-10T00:42:29;102884.53;;;6.56;52.56
7524;BME280;3803;51.666;7.630;2023-02-10T00:42:50;102886.31;;;6.57;52.11
7524;BME280;3803;51.666;7.630;2023-02-10T00:43:11;102886.56;;;6.61;52.34
7524;BME280;3803;51.666;7.630;2023-02-10T00:43:32;102885.66;;;6.60;51.85
7524;BME280;3803;51.666;7.630;2023-02-10T00:43:53;102882.94;;;6.58;51.97
7524;BME280;3803;51.666;7.630;2023-02-10T00:44:13;102891.75;;;6.61;51.99
7524;BME280;3803;51.666;7.630;2023-02-10T00:44:34;102889.94;;;6.60;52.64
7524;BME280;3803;51.666;7.630;2023-02-10T00:44:56;102893.59;;;6.62;52.16
7524;BME280;3803;51.666;7.630;2023-02-10T00:45:17;102889.94;;;6.60;52.10
7524;BME280;3803;51.666;7.630;2023-02-10T00:45:38;102884.16;;;6.52;52.60
7524;BME280;3803;51.666;7.630;2023-02-10T00:45:59;102885.06;;;6.52;52.36
7524;BME280;3803;51.666;7.630;2023-02-10T00:46:21;102892.44;;;6.58;52.24
7524;BME280;3803;51.666;7.630;2023-02-10T00:46:42;102878.84;;;6.50;52.55
7524;BME280;3803;51.666;7.630;2023-02-10T00:47:02;102899.44;;;6.59;52.21
7524;BME280;3803;51.666;7.630;2023-02-10T00:47:23;102893.09;;;6.55;52.25
7524;BME280;3803;51.666;7.630;2023-02-10T00:47:47;102889.94;;;6.60;52.59
7524;BME280;3803;51.666;7.630;2023-02-10T00:48:09;102895.38;;;6.63;52.49
7524;BME280;3803;51.666;7.630;2023-02-10T00:48:31;102893.47;;;6.60;52.16
7524;BME280;3803;51.666;7.630;2023-02-10T00:48:51;102895.25;;;6.61;52.16
7524;BME280;3803;51.666;7.630;2023-02-10T00:49:12;102891.88;;;6.62;52.30
7524;BME280;3803;51.666;7.630;2023-02-10T00:49:33;102899.00;;;6.65;52.37
7524;BME280;3803;51.666;7.630;2023-02-10T00:49:53;102901.59;;;6.65;51.96
7524;BME280;3803;51.666;7.630;2023-02-10T00:50:15;102892.81;;;6.63;52.50
7524;BME280;3803;51.666;7.630;2023-02-10T00:50:36;102902.63;;;6.67;52.11
7524;BME280;3803;51.666;7.630;2023-02-10T00:50:57;102904.19;;;6.65;52.01
7524;BME280;3803;51.666;7.630;2023-02-10T00:51:18;102898.22;;;6.66;52.50
7524;BME280;3803;51.666;7.630;2023-02-10T00:51:39;102903.94;;;6.72;52.17
7524;BME280;3803;51.666;7.630;2023-02-10T00:52:00;102903.13;;;6.73;51.90
7524;BME280;3803;51.666;7.630;2023-02-10T00:52:22;102904.41;;;6.68;51.92
7524;BME280;3803;51.666;7.630;2023-02-10T00:52:43;102899.00;;;6.65;52.09
7524;BME280;3803;51.666;7.630;2023-02-10T00:53:03;102894.03;;;6.68;52.35
7524;BME280;3803;51.666;7.630;2023-02-10T00:53:24;102899.78;;;6.64;52.32
7524;BME280;3803;51.666;7.630;2023-02-10T00:53:45;102898.00;;;6.63;52.32
7524;BME280;3803;51.666;7.630;2023-02-10T00:54:06;102908.59;;;6.66;52.22
7524;BME280;3803;51.666;7.630;2023-02-10T00:54:26;102900.59;;;6.63;52.17
7524;BME280;3803;51.666;7.630;2023-02-10T00:54:48;102899.78;;;6.64;52.41
7524;BME280;3803;51.666;7.630;2023-02-10T00:55:08;102900.59;;;6.63;52.76
7524;BME280;3803;51.666;7.630;2023-02-10T00:55:29;102889.94;;;6.60;52.21
7524;BME280;3803;51.666;7.630;2023-02-10T00:56:03;102902.53;;;6.65;52.17
7524;BME280;3803;51.666;7.630;2023-02-10T00:56:23;102895.13;;;6.60;52.13
7524;BME280;3803;51.666;7.630;2023-02-10T00:56:44;102901.09;;;6.58;51.92
7524;BME280;3803;51.666;7.630;2023-02-10T00:57:05;102906.91;;;6.66;52.38
7524;BME280;3803;51.666;7.630;2023-02-10T00:57:25;102891.75;;;6.61;52.22
7524;BME280;3803;51.666;7.630;2023-02-10T00:57:46;102896.53;;;6.66;52.35
7524;BME280;3803;51.666;7.630;2023-02-10T00:58:07;102901.38;;;6.62;52.07
7524;BME280;3803;51.666;7.630;2023-02-10T00:58:27;102892.44;;;6.58;52.34
7524;BME280;3803;51.666;7.630;2023-02-10T00:58:49;102896.94;;;6.61;51.98
7524;BME280;3803;51.666;7.630;2023-02-10T00:59:12;102901.38;;;6.62;52.54
7524;BME280;3803;51.666;7.630;2023-02-10T00:59:32;102887.13;;;6.56;52.59
7524;BME280;3803;51.666;7.630;2023-02-10T00:59:53;102894.34;;;6.61;52.16
7524;BME280;3803;51.666;7.630;2023-02-10T01:00:15;102900.03;;;6.67;52.43
7524;BME280;3803;51.666;7.630;2023-02-10T01:00:35;102901.81;;;6.68;52.24
7524;BME280;3803;51.666;7.630;2023-02-10T01:00:56;102909.59;;;6.68;52.19
7524;BME280;3803;51.666;7.630;2023-02-10T01:01:17;102891.22;;;6.65;52.31
7524;BME280;3803;51.666;7.630;2023-02-10T01:01:38;102894.72;;;6.65;52.32
7524;BME280;3803;51.666;7.630;2023-02-10T01:01:59;102899.00;;;6.65;52.28
7524;BME280;3803;51.666;7.630;2023-02-10T01:02:19;102908.19;;;6.71;52.21
7524;BME280;3803;51.666;7.630;2023-02-10T01:02:40;102896.53;;;6.66;52.52
7524;BME280;3803;51.666;7.630;2023-02-10T01:03:00;102898.22;;;6.66;52.30
7524;BME280;3803;51.666;7.630;2023-02-10T01:03:22;102895.63;;;6.66;52.10
7524;BME280;3803;51.666;7.630;2023-02-10T01:03:43;102899.00;;;6.65;52.39
7524;BME280;3803;51.666;7.630;2023-02-10T01:04:03;102899.22;;;6.68;51.99
7524;BME280;3803;51.666;7.630;2023-02-10T01:04:24;102914.31;;;6.72;52.08
7524;BME280;3803;51.666;7.630;2023-02-10T01:04:45;102911.53;;;6.70;52.04
7524;BME280;3803;51.666;7.630;2023-02-10T01:05:05;102901.72;;;6.66;52.34
7524;BME280;3803;51.666;7.630;2023-02-10T01:05:26;102906.25;;;6.69;52.16
7524;BME280;3803;51.666;7.630;2023-02-10T01:06:00;102908.06;;;6.70;52.12
7524;BME280;3803;51.666;7.630;2023-02-10T01:06:22;102899.00;;;6.65;52.41
7524;BME280;3803;51.666;7.630;2023-02-10T01:06:43;102895.50;;;6.64;52.63
7524;BME280;3803;51.666;7.630;2023-02-10T01:07:05;102895.38;;;6.63;52.05
7524;BME280;3803;51.666;7.630;2023-02-10T01:07:26;102906.25;;;6.69;52.38
7524;BME280;3803;51.666;7.630;2023-02-10T01:07:46;102908.94;;;6.70;52.41
7524;BME280;3803;51.666;7.630;2023-02-10T01:08:07;102903.66;;;6.69;52.38
7524;BME280;3803;51.666;7.630;2023-02-10T01:08:28;102902.63;;;6.67;52.62
7524;BME280;3803;51.666;7.630;2023-02-10T01:08:48;102899.22;;;6.68;52.39
7524;BME280;3803;51.666;7.630;2023-02-10T01:09:09;102915.09;;;6.71;52.19
7524;BME280;3803;51.666;7.630;2023-02-10T01:09:30;102915.47;;;6.76;52.18
7524;BME280;3803;51.666;7.630;2023-02-10T01:09:51;102893.81;;;6.65;51.92
7524;BME280;3803;51.666;7.630;2023-02-10T01:10:12;102900.03;;;6.67;52.39
7524;BME280;3803;51.666;7.630;2023-02-10T01:10:33;102914.53;;;6.75;52.48
7524;BME280;3803;51.666;7.630;2023-02-10T01:11:19;102910.78;;;6.71;52.32
7524;BME280;3803;51.666;7.630;2023-02-10T01:11:40;102915.31;;;6.74;52.01
7524;BME280;3803;51.666;7.630;2023-02-10T01:12:01;102894.03;;;6.68;52.24
7524;BME280;3803;51.666;7.630;2023-02-10T01:12:23;102909.25;;;6.74;52.16
7524;BME280;3803;51.666;7.630;2023-02-10T01:12:44;102903.94;;;6.72;51.91
7524;BME280;3803;51.666;7.630;2023-02-10T01:13:06;102901.97;;;6.69;52.19
7524;BME280;3803;51.666;7.630;2023-02-10T01:13:28;102917.81;;;6.73;51.79
7524;BME280;3803;51.666;7.630;2023-02-10T01:13:49;102915.09;;;6.71;52.17
7524;BME280;3803;51.666;7.630;2023-02-10T01:14:10;102909.38;;;6.65;52.16
7524;BME280;3803;51.666;7.630;2023-02-10T01:14:31;102913.00;;;6.67;52.35
7524;BME280;3803;51.666;7.630;2023-02-10T01:14:53;102906.56;;;6.62;52.26
7524;BME280;3803;51.666;7.630;2023-02-10T01:15:14;102909.81;;;6.59;52.19
7524;BME280;3803;51.666;7.630;2023-02-10T01:15:35;102908.41;;;6.52;52.38
7524;BME280;3803;51.666;7.630;2023-02-10T01:16:04;102902.97;;;6.49;52.25
7524;BME280;3803;51.666;7.630;2023-02-10T01:16:25;102903.53;;;6.45;52.71
7524;BME280;3803;51.666;7.630;2023-02-10T01:16:45;102918.13;;;6.55;52.82
7524;BME280;3803;51.666;7.630;2023-02-10T01:17:06;102920.63;;;6.53;52.71
7524;BME280;3803;51.666;7.630;2023-02-10T01:17:27;102908.16;;;6.49;52.58
7524;BME280;3803;51.666;7.630;2023-02-10T01:17:47;102909.97;;;6.50;52.88
7524;BME280;3803;51.666;7.630;2023-02-10T01:18:08;102916.75;;;6.48;52.65
7524;BME280;3803;51.666;7.630;2023-02-10T01:18:28;102909.38;;;6.42;52.95
7524;BME280;3803;51.666;7.630;2023-02-10T01:18:51;102914.66;;;6.44;52.39
7524;BME280;3803;51.666;7.630;2023-02-10T01:19:11;102924.41;;;6.47;52.78
7524;BME280;3803;51.666;7.630;2023-02-10T01:19:32;102912.38;;;6.37;52.88
7524;BME280;3803;51.666;7.630;2023-02-10T01:19:52;102915.75;;;6.36;53.14
7524;BME280;3803;51.666;7.630;2023-02-10T01:20:13;102910.09;;;6.29;53.19
7524;BME280;3803;51.666;7.630;2023-02-10T01:20:33;102914.59;;;6.32;53.21
7524;BME280;3803;51.666;7.630;2023-02-10T01:20:54;102917.97;;;6.31;53.00
7524;BME280;3803;51.666;7.630;2023-02-10T01:21:18;102912.69;;;6.29;53.12
7524;BME280;3803;51.666;7.630;2023-02-10T01:21:40;102916.53;;;6.35;52.99
7524;BME280;3803;51.666;7.630;2023-02-10T01:22:00;102922.50;;;6.34;53.10
7524;BME280;3803;51.666;7.630;2023-02-10T01:22:21;102909.19;;;6.29;52.96
7524;BME280;3803;51.666;7.630;2023-02-10T01:22:42;102910.09;;;6.29;53.34
7524;BME280;3803;51.666;7.630;2023-02-10T01:23:03;102916.53;;;6.35;53.12
7524;BME280;3803;51.666;7.630;2023-02-10T01:23:24;102912.13;;;6.34;52.94
7524;BME280;3803;51.666;7.630;2023-02-10T01:23:47;102918.72;;;6.40;53.29
7524;BME280;3803;51.666;7.630;2023-02-10T01:24:07;102912.38;;;6.37;52.93
7524;BME280;3803;51.666;7.630;2023-02-10T01:24:28;102919.84;;;6.44;52.84
7524;BME280;3803;51.666;7.630;2023-02-10T01:24:50;102917.97;;;6.41;52.70
7524;BME280;3803;51.666;7.630;2023-02-10T01:25:11;102923.25;;;6.43;52.74
7524;BME280;3803;51.666;7.630;2023-02-10T01:25:32;102925.97;;;6.44;53.02
7524;BME280;3803;51.666;7.630;2023-02-10T01:25:54;102918.72;;;6.40;52.98
7524;BME280;3803;51.666;7.630;2023-02-10T01:26:15;102930.22;;;6.44;53.17
7524;BME280;3803;51.666;7.630;2023-02-10T01:26:36;102933.88;;;6.46;53.04
7524;BME280;3803;51.666;7.630;2023-02-10T01:26:56;102918.72;;;6.40;53.31
7524;BME280;3803;51.666;7.630;2023-02-10T01:27:41;102937.72;;;6.51;53.10
7524;BME280;3803;51.666;7.630;2023-02-10T01:28:03;102922.34;;;6.42;53.32
7524;BME280;3803;51.666;7.630;2023-02-10T01:28:24;102927.13;;;6.48;52.90
7524;BME280;3803;51.666;7.630;2023-02-10T01:28:44;102920.53;;;6.41;53.46
7524;BME280;3803;51.666;7.630;2023-02-10T01:29:05;102927.78;;;6.46;52.93
7524;BME280;3803;51.666;7.630;2023-02-10T01:29:25;102923.50;;;6.46;52.84
7524;BME280;3803;51.666;7.630;2023-02-10T01:29:46;102929.84;;;6.50;52.94
7524;BME280;3803;51.666;7.630;2023-02-10T01:30:07;102924.41;;;6.47;52.97
7524;BME280;3803;51.666;7.630;2023-02-10T01:30:28;102927.78;;;6.46;53.32
7524;BME280;3803;51.666;7.630;2023-02-10T01:30:48;102929.59;;;6.47;53.32
7524;BME280;3803;51.666;7.630;2023-02-10T01:31:12;102915.75;;;6.36;53.01
7524;BME280;3803;51.666;7.630;2023-02-10T01:31:33;102928.19;;;6.40;53.37
7524;BME280;3803;51.666;7.630;2023-02-10T01:31:54;102922.22;;;6.41;52.95
7524;BME280;3803;51.666;7.630;2023-02-10T01:32:14;102920.28;;;6.38;53.11
7524;BME280;3803;51.666;7.630;2023-02-10T01:32:35;102922.22;;;6.41;53.14
7524;BME280;3803;51.666;7.630;2023-02-10T01:32:57;102921.22;;;6.39;53.60
7524;BME280;3803;51.666;7.630;2023-02-10T01:33:18;102924.81;;;6.41;53.25
7524;BME280;3803;51.666;7.630;2023-02-10T01:33:40;102920.41;;;6.40;53.40
7524;BME280;3803;51.666;7.630;2023-02-10T01:34:01;102920.66;;;6.43;53.21
7524;BME280;3803;51.666;7.630;2023-02-10T01:34:22;102924.94;;;6.42;53.28
7524;BME280;3803;51.666;7.630;2023-02-10T01:34:43;102925.03;;;6.44;53.19
7524;BME280;3803;51.666;7.630;2023-02-10T01:35:04;102922.44;;;6.44;53.07
7524;BME280;3803;51.666;7.630;2023-02-10T01:35:24;102912.88;;;6.43;53.02
7524;BME280;3803;51.666;7.630;2023-02-10T01:35:46;102931.88;;;6.54;53.06
7524;BME280;3803;51.666;7.630;2023-02-10T01:36:10;102928.69;;;6.46;53.03
7524;BME280;3803;51.666;7.630;2023-02-10T01:36:32;102933.47;;;6.52;52.88
7524;BME280;3803;51.666;7.630;2023-02-10T01:36:52;102925.53;;;6.50;52.89
7524;BME280;3803;51.666;7.630;2023-02-10T01:37:13;102924.75;;;6.51;53.27
7524;BME280;3803;51.666;7.630;2023-02-10T01:37:34;102929.91;;;6.62;53.15
7524;BME280;3803;51.666;7.630;2023-02-10T01:37:56;102933.03;;;6.57;52.74
7524;BME280;3803;51.666;7.630;2023-02-10T01:38:17;102923.97;;;6.52;52.76
7524;BME280;3803;51.666;7.630;2023-02-10T01:38:38;102924.53;;;6.48;53.22
7524;BME280;3803;51.666;7.630;2023-02-10T01:38:59;102924.53;;;6.48;52.81
7524;BME280;3803;51.666;7.630;2023-02-10T01:39:20;102927.25;;;6.50;52.79
7524;BME280;3803;51.666;7.630;2023-02-10T01:39:41;102925.53;;;6.50;52.79
7524;BME280;3803;51.666;7.630;2023-02-10T01:40:02;102923.59;;;6.48;52.92
7524;BME280;3803;51.666;7.630;2023-02-10T01:40:26;102930.50;;;6.47;52.99
7524;BME280;3803;51.666;7.630;2023-02-10T01:40:48;102917.16;;;6.42;52.91
7524;BME280;3803;51.666;7.630;2023-02-10T01:41:09;102930.50;;;6.47;53.03
7524;BME280;3803;51.666;7.630;2023-02-10T01:41:30;102930.22;;;6.44;53.22
7524;BME280;3803;51.666;7.630;2023-02-10T01:41:50;102922.22;;;6.41;53.21
7524;BME280;3803;51.666;7.630;2023-02-10T01:42:13;102932.97;;;6.46;52.88
7524;BME280;3803;51.666;7.630;2023-02-10T01:42:34;102929.59;;;6.47;53.05
7524;BME280;3803;51.666;7.630;2023-02-10T01:42:55;102921.69;;;6.45;52.79
7524;BME280;3803;51.666;7.630;2023-02-10T01:43:16;102926.19;;;6.48;52.74
7524;BME280;3803;51.666;7.630;2023-02-10T01:43:58;102933.59;;;6.53;52.93
7524;BME280;3803;51.666;7.630;2023-02-10T01:45:20;102934.34;;;6.52;53.27
7524;BME280;3803;51.666;7.630;2023-02-10T01:45:41;102929.34;;;6.43;53.03
7524;BME280;3803;51.666;7.630;2023-02-10T01:46:02;102917.69;;;6.38;53.28
7524;BME280;3803;51.666;7.630;2023-02-10T01:46:22;102916.25;;;6.42;53.08
7524;BME280;3803;51.666;7.630;2023-02-10T01:46:43;102933.09;;;6.47;52.98
7524;BME280;3803;51.666;7.630;2023-02-10T01:47:04;102926.09;;;6.46;53.17
7524;BME280;3803;51.666;7.630;2023-02-10T01:47:24;102930.22;;;6.44;52.88
7524;BME280;3803;51.666;7.630;2023-02-10T01:47:48;102926.63;;;6.42;53.33
7524;BME280;3803;51.666;7.630;2023-02-10T01:48:10;102927.41;;;6.41;53.04
7524;BME280;3803;51.666;7.630;2023-02-10T01:48:32;102920.94;;;6.36;53.17
7524;BME280;3803;51.666;7.630;2023-02-10T01:48:55;102926.38;;;6.39;53.08
7524;BME280;3803;51.666;7.630;2023-02-10T01:49:24;102934.97;;;6.38;53.29
7524;BME280;3803;51.666;7.630;2023-02-10T01:49:48;102938.72;;;6.41;53.23
7524;BME280;3803;51.666;7.630;2023-02-10T01:50:10;102927.28;;;6.39;53.45
7524;BME280;3803;51.666;7.630;2023-02-10T01:50:37;102936.13;;;6.41;53.04
7524;BME280;3803;51.666;7.630;2023-02-10T01:51:04;102926.91;;;6.35;52.96
7524;BME280;3803;51.666;7.630;2023-02-10T01:51:41;102921.63;;;6.33;53.18
7524;BME280;3803;51.666;7.630;2023-02-10T01:52:06;102931.31;;;6.36;53.35
7524;BME280;3803;51.666;7.630;2023-02-10T01:52:29;102933.13;;;6.37;53.32
7524;BME280;3803;51.666;7.630;2023-02-10T01:52:52;102938.56;;;6.40;53.32
7524;BME280;3803;51.666;7.630;2023-02-10T01:53:14;102918.91;;;6.32;53.14
7524;BME280;3803;51.666;7.630;2023-02-10T01:53:35;102932.38;;;6.38;53.53
7524;BME280;3803;51.666;7.630;2023-02-10T01:53:56;102923.44;;;6.34;53.51
7524;BME280;3803;51.666;7.630;2023-02-10T01:54:21;102931.72;;;6.30;53.64
7524;BME280;3803;51.666;7.630;2023-02-10T01:54:48;102923.81;;;6.28;53.55
7524;BME280;3803;51.666;7.630;2023-02-10T01:55:15;102921.50;;;6.32;53.22
7524;BME280;3803;51.666;7.630;2023-02-10T01:55:39;102925.66;;;6.29;53.48
7524;BME280;3803;51.666;7.630;2023-02-10T01:56:02;102926.53;;;6.30;53.50
7524;BME280;3803;51.666;7.630;2023-02-10T01:56:23;102926.97;;;6.24;53.55
7524;BME280;3803;51.666;7.630;2023-02-10T01:56:44;102934.69;;;6.35;53.45
7524;BME280;3803;51.666;7.630;2023-02-10T01:57:07;102927.19;;;6.27;53.50
7524;BME280;3803;51.666;7.630;2023-02-10T01:57:29;102933.81;;;6.34;53.72
7524;BME280;3803;51.666;7.630;2023-02-10T01:57:50;102916.81;;;6.27;53.86
7524;BME280;3803;51.666;7.630;2023-02-10T01:58:15;102937.19;;;6.33;53.58
7524;BME280;3803;51.666;7.630;2023-02-10T01:58:38;102931.88;;;6.32;53.68
7524;BME280;3803;51.666;7.630;2023-02-10T01:59:02;102929.41;;;6.33;53.69
7524;BME280;3803;51.666;7.630;2023-02-10T01:59:26;102934.03;;;6.37;53.94